sensor_id;sensor_type;location;lat;lon;timestamp;pressure;altitude;pressure_sealevel;temperature;humidity
55014;BME280;40916;51.632;5.552;2023-03-31T00:00:24;999.90868392267;;;10.242523549551525;0
55014;BME280;40916;51.632;5.552;2023-03-31T00:01:24;999.968738796207;;;10.249357232823822;0
55014;BME280;40916;51.632;5.552;2023-03-31T00:02:24;999.9405522214628;;;10.23568942839853;0
55014;BME280;40916;51.632;5.552;2023-03-31T00:03:25;999.9282953867933;;;10.22885486922614;0
55014;BME280;40916;51.632;5.552;2023-03-31T00:04:25;999.8192121412975;;;10.215184436268114;0
55014;BME280;40916;51.632;5.552;2023-03-31T00:05:25;999.827793649979;;;10.222019871895604;0
55014;BME280;40916;51.632;5.552;2023-03-31T00:06:25;999.8351472744331;;;10.222019871895604;0
55014;BME280;40916;51.632;5.552;2023-03-31T00:07:25;999.7616110513284;;;10.222019871895604;0
55014;BME280;40916;51.632;5.552;2023-03-31T00:08:25;999.7971516010455;;;10.215184436268114;0
55014;BME280;40916;51.632;5.552;2023-03-31T00:09:25;999.723616497836;;;10.215184436268114;0
55014;BME280;40916;51.632;5.552;2023-03-31T00:10:25;999.7493537785406;;;10.215184436268114;0
55014;BME280;40916;51.632;5.552;2023-03-31T00:11:26;999.7628363517878;;;10.22885486922614;0
55014;BME280;40916;51.632;5.552;2023-03-31T00:12:26;999.7395501936862;;;10.222019871895604;0
55014;BME280;40916;51.632;5.552;2023-03-31T00:13:26;999.7211661489264;;;10.222019871895604;0
55014;BME280;40916;51.632;5.552;2023-03-31T00:14:26;999.7064518780777;;;10.201512249566704;0
55014;BME280;40916;51.632;5.552;2023-03-31T00:15:26;999.6562077646381;;;10.20834856220479;0
55014;BME280;40916;51.632;5.552;2023-03-31T00:16:26;999.6721419539333;;;10.215184436268114;0
55014;BME280;40916;51.632;5.552;2023-03-31T00:17:26;999.6133058236676;;;10.194675498214874;0
55014;BME280;40916;51.632;5.552;2023-03-31T00:18:26;999.5826618737026;;;10.187838308010246;0
55014;BME280;40916;51.632;5.552;2023-03-31T00:19:26;999.5581356933567;;;10.174162610486121;0
55014;BME280;40916;51.632;5.552;2023-03-31T00:20:26;999.5348414394857;;;10.167324102888234;0
55014;BME280;40916;51.632;5.552;2023-03-31T00:21:27;999.4564015176553;;;10.160485155880774;0
55014;BME280;40916;51.632;5.552;2023-03-31T00:22:27;999.4527252106277;;;10.160485155880774;0
55014;BME280;40916;51.632;5.552;2023-03-31T00:23:27;999.4000197410902;;;10.153645769324399;0
55014;BME280;40916;51.632;5.552;2023-03-31T00:24:27;999.4539237941259;;;10.146805943079709;0
55014;BME280;40916;51.632;5.552;2023-03-31T00:25:27;999.337480561398;;;10.133124970967486;0
55014;BME280;40916;51.632;5.552;2023-03-31T00:26:27;999.3914284552243;;;10.146805943079709;0
55014;BME280;40916;51.632;5.552;2023-03-31T00:27:27;999.3313165676375;;;10.119442238427727;0
55014;BME280;40916;51.632;5.552;2023-03-31T00:28:27;999.2725009951814;;;10.119442238427727;0
55014;BME280;40916;51.632;5.552;2023-03-31T00:29:27;999.2651490507671;;;10.119442238427727;0
55014;BME280;40916;51.632;5.552;2023-03-31T00:30:27;999.2773597134293;;;10.105757744343101;0
55014;BME280;40916;51.632;5.552;2023-03-31T00:31:28;999.211252484094;;;10.12628382482086;0
55014;BME280;40916;51.632;5.552;2023-03-31T00:32:28;999.1388568463726;;;10.092071487595337;0
55014;BME280;40916;51.632;5.552;2023-03-31T00:33:28;999.2295735063597;;;10.105757744343101;0
55014;BME280;40916;51.632;5.552;2023-03-31T00:34:28;999.1315053491495;;;10.092071487595337;0
55014;BME280;40916;51.632;5.552;2023-03-31T00:35:28;999.1560563039956;;;10.105757744343101;0
55014;BME280;40916;51.632;5.552;2023-03-31T00:36:28;999.146208344072;;;10.092071487595337;0
55014;BME280;40916;51.632;5.552;2023-03-31T00:37:28;999.1511331262532;;;10.098914836372039;0
55014;BME280;40916;51.632;5.552;2023-03-31T00:38:28;999.1498840931001;;;10.092071487595337;0
55014;BME280;40916;51.632;5.552;2023-03-31T00:39:28;999.1278296007165;;;10.092071487595337;0
55014;BME280;40916;51.632;5.552;2023-03-31T00:40:28;999.1278296007165;;;10.092071487595337;0
55014;BME280;40916;51.632;5.552;2023-03-31T00:41:28;999.0701924821249;;;10.078383467065208;0
55014;BME280;40916;51.632;5.552;2023-03-31T00:42:29;999.0995975807655;;;10.078383467065208;0
55014;BME280;40916;51.632;5.552;2023-03-31T00:43:29;999.1020196986232;;;10.071538795031746;0
55014;BME280;40916;51.632;5.552;2023-03-31T00:44:29;999.0272539229655;;;10.064693681632555;0
55014;BME280;40916;51.632;5.552;2023-03-31T00:45:29;999.0640091868918;;;10.064693681632555;0
55014;BME280;40916;51.632;5.552;2023-03-31T00:46:29;998.9487141013102;;;10.037308811574253;0
55014;BME280;40916;51.632;5.552;2023-03-31T00:47:29;998.9229869770397;;;10.037308811574253;0
55014;BME280;40916;51.632;5.552;2023-03-31T00:48:29;998.9413634937808;;;10.037308811574253;0
55014;BME280;40916;51.632;5.552;2023-03-31T00:49:30;998.8873860408656;;;10.023613724703516;0
55014;BME280;40916;51.632;5.552;2023-03-31T00:50:30;998.8554552975224;;;10.009916868440087;0
55014;BME280;40916;51.632;5.552;2023-03-31T00:51:30;998.877505788315;;;10.009916868440087;0
55014;BME280;40916;51.632;5.552;2023-03-31T00:52:31;998.8308693826007;;;9.996218241659037;0
55014;BME280;40916;51.632;5.552;2023-03-31T00:53:30;998.849244238664;;;9.996218241659037;0
55014;BME280;40916;51.632;5.552;2023-03-31T00:54:30;998.8406238367993;;;9.989368263972608;0
55014;BME280;40916;51.632;5.552;2023-03-31T00:55:32;998.8749690421496;;;9.996218241659037;0
55014;BME280;40916;51.632;5.552;2023-03-31T00:56:31;998.7548298752617;;;9.982517843234497;0
55014;BME280;40916;51.632;5.552;2023-03-31T00:57:31;998.7682564536742;;;9.975666979303817;0
55014;BME280;40916;51.632;5.552;2023-03-31T00:58:30;998.7166572479113;;;9.955111726946658;0
55014;BME280;40916;51.632;5.552;2023-03-31T00:59:31;998.6738382508262;;;9.961963921300931;0
55014;BME280;40916;51.632;5.552;2023-03-31T01:00:30;998.746054355303;;;9.955111726946658;0
55014;BME280;40916;51.632;5.552;2023-03-31T01:01:31;998.7240065240454;;;9.955111726946658;0
55014;BME280;40916;51.632;5.552;2023-03-31T01:02:31;998.6257345321657;;;9.920844096000266;0
55014;BME280;40916;51.632;5.552;2023-03-31T01:03:31;998.6600889387106;;;9.927698510550456;0
55014;BME280;40916;51.632;5.552;2023-03-31T01:04:32;998.6674377720267;;;9.927698510550456;0
55014;BME280;40916;51.632;5.552;2023-03-31T01:05:33;998.6613723714562;;;9.934552480778859;0
55014;BME280;40916;51.632;5.552;2023-03-31T01:06:31;998.6821354400857;;;9.927698510550456;0
55014;BME280;40916;51.632;5.552;2023-03-31T01:07:33;998.6036883711603;;;9.920844096000266;0
55014;BME280;40916;51.632;5.552;2023-03-31T01:08:31;998.5472877541144;;;9.913989236986868;0
55014;BME280;40916;51.632;5.552;2023-03-31T01:09:31;998.4835385948501;;;9.907133933368776;0
55014;BME280;40916;51.632;5.552;2023-03-31T01:10:32;998.5215676354736;;;9.913989236986868;0
55014;BME280;40916;51.632;5.552;2023-03-31T01:11:32;998.516606814627;;;9.907133933368776;0
55014;BME280;40916;51.632;5.552;2023-03-31T01:12:32;998.4003157260927;;;9.913989236986868;0
55014;BME280;40916;51.632;5.552;2023-03-31T01:13:33;998.4800426710885;;;9.927698510550456;0
55014;BME280;40916;51.632;5.552;2023-03-31T01:14:32;998.4666255500805;;;9.934552480778859;0
55014;BME280;40916;51.632;5.552;2023-03-31T01:15:32;998.4506473892081;;;9.927698510550456;0
55014;BME280;40916;51.632;5.552;2023-03-31T01:16:32;998.4335553683161;;;9.934552480778859;0
55014;BME280;40916;51.632;5.552;2023-03-31T01:17:32;998.369810403288;;;9.927698510550456;0
55014;BME280;40916;51.632;5.552;2023-03-31T01:18:32;998.3551127756692;;;9.927698510550456;0
55014;BME280;40916;51.632;5.552;2023-03-31T01:19:35;998.269480434614;;;9.941406006826835;0
55014;BME280;40916;51.632;5.552;2023-03-31T01:20:34;998.3038256645725;;;9.948259088835687;0
55014;BME280;40916;51.632;5.552;2023-03-31T01:21:39;998.2547823808061;;;9.941406006826835;0
55014;BME280;40916;51.632;5.552;2023-03-31T01:22:38;998.2683523035182;;;9.955111726946658;0
55014;BME280;40916;51.632;5.552;2023-03-31T01:23:39;998.2463045650474;;;9.955111726946658;0
55014;BME280;40916;51.632;5.552;2023-03-31T01:24:37;998.1986632212476;;;9.975666979303817;0
55014;BME280;40916;51.632;5.552;2023-03-31T01:25:47;998.1704066387946;;;9.961963921300931;0
55014;BME280;40916;51.632;5.552;2023-03-31T01:26:35;998.1092036476593;;;9.968815672039632;0
55014;BME280;40916;51.632;5.552;2023-03-31T01:27:41;998.1349267469391;;;9.968815672039632;0
55014;BME280;40916;51.632;5.552;2023-03-31T01:28:35;998.0909433748211;;;9.989368263972608;0
55014;BME280;40916;51.632;5.552;2023-03-31T01:29:39;998.0406475406337;;;9.975666979303817;0
55014;BME280;40916;51.632;5.552;2023-03-31T01:30:36;998.0345598533285;;;9.982517843234497;0
55014;BME280;40916;51.632;5.552;2023-03-31T01:31:54;998.1327212111362;;;10.016765517816175;0
55014;BME280;40916;51.632;5.552;2023-03-31T01:32:54;998.0579654261066;;;10.009916868440087;0
55014;BME280;40916;51.632;5.552;2023-03-31T01:33:39;998.045770148649;;;10.023613724703516;0
55014;BME280;40916;51.632;5.552;2023-03-31T01:34:42;998.0004896598629;;;10.037308811574253;0
55014;BME280;40916;51.632;5.552;2023-03-31T01:35:47;998.0409176720616;;;10.037308811574253;0
55014;BME280;40916;51.632;5.552;2023-03-31T01:37:10;998.0262743807807;;;10.057848126727471;0
55014;BME280;40916;51.632;5.552;2023-03-31T01:37:39;997.8682306332342;;;10.057848126727471;0
55014;BME280;40916;51.632;5.552;2023-03-31T01:38:41;997.8621182249389;;;10.064693681632555;0
55014;BME280;40916;51.632;5.552;2023-03-31T01:39:46;997.8523520811418;;;10.092071487595337;0
55014;BME280;40916;51.632;5.552;2023-03-31T01:40:38;997.8413249604653;;;10.092071487595337;0
55014;BME280;40916;51.632;5.552;2023-03-31T01:41:37;997.8192707223261;;;10.092071487595337;0
55014;BME280;40916;51.632;5.552;2023-03-31T01:42:35;997.7923208338373;;;10.105757744343101;0
55014;BME280;40916;51.632;5.552;2023-03-31T01:43:36;997.846232693195;;;10.119442238427727;0
55014;BME280;40916;51.632;5.552;2023-03-31T01:44:38;997.8143715216211;;;10.12628382482086;0
55014;BME280;40916;51.632;5.552;2023-03-31T01:45:37;997.813149362777;;;10.119442238427727;0
55014;BME280;40916;51.632;5.552;2023-03-31T01:46:36;997.7714795605059;;;10.133124970967486;0
55014;BME280;40916;51.632;5.552;2023-03-31T01:47:36;997.7371759696751;;;10.12628382482086;0
55014;BME280;40916;51.632;5.552;2023-03-31T01:48:38;997.6317903799204;;;10.133124970967486;0
55014;BME280;40916;51.632;5.552;2023-03-31T01:49:38;997.732260676132;;;10.139965677007243;0
55014;BME280;40916;51.632;5.552;2023-03-31T01:50:37;997.7346904950672;;;10.153645769324399;0
55014;BME280;40916;51.632;5.552;2023-03-31T01:51:38;997.7150957336482;;;10.146805943079709;0
55014;BME280;40916;51.632;5.552;2023-03-31T01:52:36;997.6048115540992;;;10.146805943079709;0
55014;BME280;40916;51.632;5.552;2023-03-31T01:53:39;997.5619093894705;;;10.153645769324399;0
55014;BME280;40916;51.632;5.552;2023-03-31T01:54:36;997.5962053738554;;;10.160485155880774;0
55014;BME280;40916;51.632;5.552;2023-03-31T01:55:36;997.5643272156103;;;10.167324102888234;0
55014;BME280;40916;51.632;5.552;2023-03-31T01:56:37;997.6108551383351;;;10.181000678813717;0
55014;BME280;40916;51.632;5.552;2023-03-31T01:57:37;997.5238879162449;;;10.167324102888234;0
55014;BME280;40916;51.632;5.552;2023-03-31T01:58:37;997.4552429563134;;;10.174162610486121;0
55014;BME280;40916;51.632;5.552;2023-03-31T01:59:37;997.4821041272445;;;10.201512249566704;0
55014;BME280;40916;51.632;5.552;2023-03-31T02:00:37;997.5078401329678;;;10.201512249566704;0
55014;BME280;40916;51.632;5.552;2023-03-31T02:01:42;997.449014985603;;;10.201512249566704;0
55014;BME280;40916;51.632;5.552;2023-03-31T02:02:37;997.436698566203;;;10.215184436268114;0
55014;BME280;40916;51.632;5.552;2023-03-31T02:03:38;997.3178525460468;;;10.20834856220479;0
55014;BME280;40916;51.632;5.552;2023-03-31T02:04:37;997.4243744489405;;;10.22885486922614;0
55014;BME280;40916;51.632;5.552;2023-03-31T02:05:39;997.3447816060636;;;10.215184436268114;0
55014;BME280;40916;51.632;5.552;2023-03-31T02:06:39;997.3765762017741;;;10.22885486922614;0
55014;BME280;40916;51.632;5.552;2023-03-31T02:07:38;997.296984816207;;;10.215184436268114;0
55014;BME280;40916;51.632;5.552;2023-03-31T02:08:39;997.2699494152424;;;10.22885486922614;0
55014;BME280;40916;51.632;5.552;2023-03-31T02:09:38;997.2931968919926;;;10.23568942839853;0
55014;BME280;40916;51.632;5.552;2023-03-31T02:10:38;997.1168278661098;;;10.215184436268114;0
55014;BME280;40916;51.632;5.552;2023-03-31T02:11:38;997.13876973699;;;10.23568942839853;0
55014;BME280;40916;51.632;5.552;2023-03-31T02:12:38;997.13876973699;;;10.23568942839853;0
55014;BME280;40916;51.632;5.552;2023-03-31T02:13:39;997.0702180646421;;;10.222019871895604;0
55014;BME280;40916;51.632;5.552;2023-03-31T02:14:39;997.0052212748292;;;10.22885486922614;0
55014;BME280;40916;51.632;5.552;2023-03-31T02:15:39;997.0346354821636;;;10.22885486922614;0
55014;BME280;40916;51.632;5.552;2023-03-31T02:16:39;996.8925512461553;;;10.215184436268114;0
55014;BME280;40916;51.632;5.552;2023-03-31T02:17:39;996.8851979218564;;;10.215184436268114;0
55014;BME280;40916;51.632;5.552;2023-03-31T02:18:39;996.861827123229;;;10.22885486922614;0
55014;BME280;40916;51.632;5.552;2023-03-31T02:19:39;996.8875645217157;;;10.22885486922614;0
55014;BME280;40916;51.632;5.552;2023-03-31T02:20:39;996.7809381945498;;;10.22885486922614;0
55014;BME280;40916;51.632;5.552;2023-03-31T02:21:39;996.7038584531605;;;10.20834856220479;0
55014;BME280;40916;51.632;5.552;2023-03-31T02:22:40;996.8019403766518;;;10.201512249566704;0
55014;BME280;40916;51.632;5.552;2023-03-31T02:23:39;996.7639873692726;;;10.194675498214874;0
55014;BME280;40916;51.632;5.552;2023-03-31T02:24:39;996.7517688311465;;;10.187838308010246;0
55014;BME280;40916;51.632;5.552;2023-03-31T02:25:41;996.7676638631292;;;10.194675498214874;0
55014;BME280;40916;51.632;5.552;2023-03-31T02:26:40;996.6757515524384;;;10.194675498214874;0
55014;BME280;40916;51.632;5.552;2023-03-31T02:27:40;996.6058982460896;;;10.194675498214874;0
55014;BME280;40916;51.632;5.552;2023-03-31T02:28:40;996.6523860453607;;;10.20834856220479;0
55014;BME280;40916;51.632;5.552;2023-03-31T02:29:40;996.5029566098258;;;10.194675498214874;0
55014;BME280;40916;51.632;5.552;2023-03-31T02:30:41;996.5042606191973;;;10.181000678813717;0
55014;BME280;40916;51.632;5.552;2023-03-31T02:31:42;996.5288060709397;;;10.174162610486121;0
55014;BME280;40916;51.632;5.552;2023-03-31T02:32:41;996.4051076468246;;;10.160485155880774;0
55014;BME280;40916;51.632;5.552;2023-03-31T02:33:40;996.3573169494506;;;10.160485155880774;0
55014;BME280;40916;51.632;5.552;2023-03-31T02:34:40;996.2899544515668;;;10.153645769324399;0
55014;BME280;40916;51.632;5.552;2023-03-31T02:35:40;996.3964585617213;;;10.174162610486121;0
55014;BME280;40916;51.632;5.552;2023-03-31T02:36:41;996.3512555775499;;;10.146805943079709;0
55014;BME280;40916;51.632;5.552;2023-03-31T02:37:41;996.2569639325301;;;10.133124970967486;0
55014;BME280;40916;51.632;5.552;2023-03-31T02:38:42;996.293723781298;;;10.133124970967486;0
55014;BME280;40916;51.632;5.552;2023-03-31T02:39:41;996.1565166874129;;;10.12628382482086;0
55014;BME280;40916;51.632;5.552;2023-03-31T02:40:41;996.1945541203544;;;10.112600211648392;0
55014;BME280;40916;51.632;5.552;2023-03-31T02:41:41;996.1541201313371;;;10.112600211648392;0
55014;BME280;40916;51.632;5.552;2023-03-31T02:42:41;996.1982299382521;;;10.112600211648392;0
55014;BME280;40916;51.632;5.552;2023-03-31T02:43:41;996.1247829045814;;;10.092071487595337;0
55014;BME280;40916;51.632;5.552;2023-03-31T02:44:41;996.1505124653895;;;10.092071487595337;0
55014;BME280;40916;51.632;5.552;2023-03-31T02:45:43;996.0733238004622;;;10.092071487595337;0
55014;BME280;40916;51.632;5.552;2023-03-31T02:46:42;996.1492435257284;;;10.105757744343101;0
55014;BME280;40916;51.632;5.552;2023-03-31T02:47:42;996.0647010414044;;;10.105757744343101;0
55014;BME280;40916;51.632;5.552;2023-03-31T02:48:42;995.9912559214234;;;10.085227697873055;0
55014;BME280;40916;51.632;5.552;2023-03-31T02:49:43;995.9385930815034;;;10.078383467065208;0
55014;BME280;40916;51.632;5.552;2023-03-31T02:51:46;996.0084282764977;;;10.078383467065208;0
55014;BME280;40916;51.632;5.552;2023-03-31T02:52:45;995.8932810466091;;;10.071538795031746;0
55014;BME280;40916;51.632;5.552;2023-03-31T02:53:47;995.8160960106862;;;10.071538795031746;0
55014;BME280;40916;51.632;5.552;2023-03-31T02:54:56;995.6666673587755;;;10.057848126727471;0
55014;BME280;40916;51.632;5.552;2023-03-31T02:55:46;995.6642508231002;;;10.044155691838636;0
55014;BME280;40916;51.632;5.552;2023-03-31T02:56:46;995.6299632110891;;;10.037308811574253;0
55014;BME280;40916;51.632;5.552;2023-03-31T02:57:50;995.6887663691505;;;10.037308811574253;0
55014;BME280;40916;51.632;5.552;2023-03-31T02:59:01;995.6740655767793;;;10.037308811574253;0
55014;BME280;40916;51.632;5.552;2023-03-31T02:59:45;995.6446970443417;;;10.016765517816175;0
55014;BME280;40916;51.632;5.552;2023-03-31T03:00:48;995.6961167660502;;;10.037308811574253;0
55014;BME280;40916;51.632;5.552;2023-03-31T03:01:47;995.5405802406116;;;10.009916868440087;0
55014;BME280;40916;51.632;5.552;2023-03-31T03:02:47;995.5258803450965;;;10.009916868440087;0
55014;BME280;40916;51.632;5.552;2023-03-31T03:03:46;995.5160709850894;;;10.016765517816175;0
55014;BME280;40916;51.632;5.552;2023-03-31T03:04:48;995.3397007022302;;;9.996218241659037;0
55014;BME280;40916;51.632;5.552;2023-03-31T03:05:44;995.4180903101808;;;10.003067776434609;0
55014;BME280;40916;51.632;5.552;2023-03-31T03:06:46;995.4205476045056;;;9.996218241659037;0
55014;BME280;40916;51.632;5.552;2023-03-31T03:07:45;995.4119786553579;;;9.989368263972608;0
55014;BME280;40916;51.632;5.552;2023-03-31T03:08:47;995.2747995540486;;;9.961963921300931;0
55014;BME280;40916;51.632;5.552;2023-03-31T03:09:46;995.2135548776516;;;9.968815672039632;0
55014;BME280;40916;51.632;5.552;2023-03-31T03:10:47;995.2821415166629;;;9.982517843234497;0
55014;BME280;40916;51.632;5.552;2023-03-31T03:11:45;995.2760236780823;;;9.968815672039632;0
55014;BME280;40916;51.632;5.552;2023-03-31T03:12:47;995.2221303517546;;;9.955111726946658;0
55014;BME280;40916;51.632;5.552;2023-03-31T03:13:45;995.2184558269943;;;9.955111726946658;0
55014;BME280;40916;51.632;5.552;2023-03-31T03:14:45;995.2086571079477;;;9.961963921300931;0
55014;BME280;40916;51.632;5.552;2023-03-31T03:15:46;995.1939587918263;;;9.961963921300931;0
55014;BME280;40916;51.632;5.552;2023-03-31T03:16:46;995.1559889242691;;;9.955111726946658;0
55014;BME280;40916;51.632;5.552;2023-03-31T03:17:45;995.1743615391489;;;9.955111726946658;0
55014;BME280;40916;51.632;5.552;2023-03-31T03:18:51;995.1817105859336;;;9.955111726946658;0
55014;BME280;40916;51.632;5.552;2023-03-31T03:19:49;995.124140295631;;;9.941406006826835;0
55014;BME280;40916;51.632;5.552;2023-03-31T03:20:45;995.0935166383001;;;9.934552480778859;0
55014;BME280;40916;51.632;5.552;2023-03-31T03:21:46;995.0641217942441;;;9.934552480778859;0
55014;BME280;40916;51.632;5.552;2023-03-31T03:22:45;995.0555525333347;;;9.948259088835687;0
55014;BME280;40916;51.632;5.552;2023-03-31T03:23:46;995.1302672684336;;;9.955111726946658;0
55014;BME280;40916;51.632;5.552;2023-03-31T03:24:46;995.0604474392723;;;9.934552480778859;0
55014;BME280;40916;51.632;5.552;2023-03-31T03:25:46;995.0481949474985;;;9.927698510550456;0
55014;BME280;40916;51.632;5.552;2023-03-31T03:26:46;995.0273599817298;;;9.913989236986868;0
55014;BME280;40916;51.632;5.552;2023-03-31T03:27:46;995.0787986413268;;;9.913989236986868;0
55014;BME280;40916;51.632;5.552;2023-03-31T03:28:46;995.056753498645;;;9.913989236986868;0
55014;BME280;40916;51.632;5.552;2023-03-31T03:29:46;995.050638043654;;;9.920844096000266;0
55014;BME280;40916;51.632;5.552;2023-03-31T03:30:46;995.0592178468878;;;9.927698510550456;0
55014;BME280;40916;51.632;5.552;2023-03-31T03:31:46;995.0273599817298;;;9.913989236986868;0
55014;BME280;40916;51.632;5.552;2023-03-31T03:32:46;995.0481704719045;;;9.907133933368776;0
55014;BME280;40916;51.632;5.552;2023-03-31T03:33:47;994.9502020360434;;;9.913989236986868;0
55014;BME280;40916;51.632;5.552;2023-03-31T03:34:47;994.9489688728218;;;9.907133933368776;0
55014;BME280;40916;51.632;5.552;2023-03-31T03:35:47;994.9783619301777;;;9.907133933368776;0
55014;BME280;40916;51.632;5.552;2023-03-31T03:36:47;994.9514334775075;;;9.920844096000266;0
55014;BME280;40916;51.632;5.552;2023-03-31T03:37:47;994.933037681404;;;9.900278185004446;0
55014;BME280;40916;51.632;5.552;2023-03-31T03:38:47;994.8375117386465;;;9.900278185004446;0
55014;BME280;40916;51.632;5.552;2023-03-31T03:39:47;994.933037681404;;;9.900278185004446;0
55014;BME280;40916;51.632;5.552;2023-03-31T03:40:51;994.8889487747567;;;9.900278185004446;0
55014;BME280;40916;51.632;5.552;2023-03-31T03:41:47;994.8705784020414;;;9.900278185004446;0
55014;BME280;40916;51.632;5.552;2023-03-31T03:42:47;994.8705784020414;;;9.900278185004446;0
55014;BME280;40916;51.632;5.552;2023-03-31T03:43:48;994.8362767792722;;;9.89342199175228;0
55014;BME280;40916;51.632;5.552;2023-03-31T03:44:48;994.7627583700092;;;9.872850741251831;0
55014;BME280;40916;51.632;5.552;2023-03-31T03:45:48;994.8240182077286;;;9.886565353470615;0
55014;BME280;40916;51.632;5.552;2023-03-31T03:46:48;994.7161901420201;;;9.859134347213587;0
55014;BME280;40916;51.632;5.552;2023-03-31T03:47:48;994.7749699927118;;;9.859134347213587;0
55014;BME280;40916;51.632;5.552;2023-03-31T03:48:48;994.8056031227885;;;9.865992767031084;0
55014;BME280;40916;51.632;5.552;2023-03-31T03:49:48;994.7382325824623;;;9.859134347213587;0
55014;BME280;40916;51.632;5.552;2023-03-31T03:50:48;994.6414728720043;;;9.852275481657372;0
55014;BME280;40916;51.632;5.552;2023-03-31T03:51:48;994.6439022747435;;;9.845416170220414;0
55014;BME280;40916;51.632;5.552;2023-03-31T03:52:48;994.5483225531947;;;9.824835559203958;0
55014;BME280;40916;51.632;5.552;2023-03-31T03:53:49;994.5323791256232;;;9.81797446282259;0
55014;BME280;40916;51.632;5.552;2023-03-31T03:54:49;994.5165090101609;;;9.831696209135885;0
55014;BME280;40916;51.632;5.552;2023-03-31T03:55:49;994.4650798327913;;;9.831696209135885;0
55014;BME280;40916;51.632;5.552;2023-03-31T03:56:49;994.447890862324;;;9.81797446282259;0
55014;BME280;40916;51.632;5.552;2023-03-31T03:57:49;994.4185036550488;;;9.81797446282259;0
55014;BME280;40916;51.632;5.552;2023-03-31T03:58:49;994.3413622721521;;;9.81797446282259;0
55014;BME280;40916;51.632;5.552;2023-03-31T03:59:49;994.3083016955318;;;9.81797446282259;0
55014;BME280;40916;51.632;5.552;2023-03-31T04:00:49;994.3058040423573;;;9.804250930142167;0
55014;BME280;40916;51.632;5.552;2023-03-31T04:01:49;994.1392573099953;;;9.797388493558277;0
55014;BME280;40916;51.632;5.552;2023-03-31T04:02:50;994.1980289496689;;;9.797388493558277;0
55014;BME280;40916;51.632;5.552;2023-03-31T04:03:50;994.1956054895205;;;9.804250930142167;0
55014;BME280;40916;51.632;5.552;2023-03-31T04:04:50;994.138006638606;;;9.790525609955282;0
55014;BME280;40916;51.632;5.552;2023-03-31T04:05:50;994.2188164409376;;;9.790525609955282;0
55014;BME280;40916;51.632;5.552;2023-03-31T04:06:50;994.1110424259114;;;9.783662279190608;0
55014;BME280;40916;51.632;5.552;2023-03-31T04:07:50;994.1171348035987;;;9.776798501121625;0
55014;BME280;40916;51.632;5.552;2023-03-31T04:08:50;994.1306602957924;;;9.790525609955282;0
55014;BME280;40916;51.632;5.552;2023-03-31T04:09:50;994.006943029623;;;9.776798501121625;0
55014;BME280;40916;51.632;5.552;2023-03-31T04:10:50;994.0424191259889;;;9.769934275605653;0
55014;BME280;40916;51.632;5.552;2023-03-31T04:11:51;993.9125093235987;;;9.74247289621588;0
55014;BME280;40916;51.632;5.552;2023-03-31T04:12:51;994.0240541098477;;;9.769934275605653;0
55014;BME280;40916;51.632;5.552;2023-03-31T04:13:51;994.0252133971342;;;9.756204481661651;0
55014;BME280;40916;51.632;5.552;2023-03-31T04:14:51;993.9908984065005;;;9.749338912947948;0
55014;BME280;40916;51.632;5.552;2023-03-31T04:15:51;993.9578428790178;;;9.749338912947948;0
55014;BME280;40916;51.632;5.552;2023-03-31T04:16:51;993.8843861857448;;;9.749338912947948;0
55014;BME280;40916;51.632;5.552;2023-03-31T04:17:51;993.8561572063303;;;9.73560643132246;0
55014;BME280;40916;51.632;5.552;2023-03-31T04:18:51;993.8438770328562;;;9.728739518124627;0